sensor_id;sensor_type;location;lat;lon;timestamp;temperature;humidity
59572;DHT22;70118;45.638;11.714;2023-07-02T00:01:49;27.50;89.00
59572;DHT22;70118;45.638;11.714;2023-07-02T00:04:16;27.40;89.00
59572;DHT22;70118;45.638;11.714;2023-07-02T00:06:46;27.50;89.00
59572;DHT22;70118;45.638;11.714;2023-07-02T00:09:13;27.40;89.30
59572;DHT22;70118;45.638;11.714;2023-07-02T00:11:40;27.50;88.90
59572;DHT22;70118;45.638;11.714;2023-07-02T00:14:08;27.30;88.30
59572;DHT22;70118;45.638;11.714;2023-07-02T00:16:37;27.50;88.00
59572;DHT22;70118;45.638;11.714;2023-07-02T00:19:03;27.40;87.90
59572;DHT22;70118;45.638;11.714;2023-07-02T00:21:29;27.50;88.10
59572;DHT22;70118;45.638;11.714;2023-07-02T00:23:58;27.40;88.20
59572;DHT22;70118;45.638;11.714;2023-07-02T00:26:27;27.50;88.60
59572;DHT22;70118;45.638;11.714;2023-07-02T00:28:54;27.60;88.30
59572;DHT22;70118;45.638;11.714;2023-07-02T00:31:20;27.40;88.50
59572;DHT22;70118;45.638;11.714;2023-07-02T00:33:46;27.50;88.30
59572;DHT22;70118;45.638;11.714;2023-07-02T00:36:15;27.40;87.80
59572;DHT22;70118;45.638;11.714;2023-07-02T00:38:42;27.50;87.50
59572;DHT22;70118;45.638;11.714;2023-07-02T00:41:09;27.40;87.80
59572;DHT22;70118;45.638;11.714;2023-07-02T00:43:34;27.50;87.90
59572;DHT22;70118;45.638;11.714;2023-07-02T00:46:01;27.50;87.80
59572;DHT22;70118;45.638;11.714;2023-07-02T00:48:29;27.40;87.80
59572;DHT22;70118;45.638;11.714;2023-07-02T00:50:56;27.50;87.80
59572;DHT22;70118;45.638;11.714;2023-07-02T00:53:22;27.40;88.10
59572;DHT22;70118;45.638;11.714;2023-07-02T00:55:48;27.40;88.10
59572;DHT22;70118;45.638;11.714;2023-07-02T00:58:13;27.50;87.90
59572;DHT22;70118;45.638;11.714;2023-07-02T01:00:42;27.40;88.00
59572;DHT22;70118;45.638;11.714;2023-07-02T01:03:07;27.40;87.80
59572;DHT22;70118;45.638;11.714;2023-07-02T01:05:33;27.50;88.00
59572;DHT22;70118;45.638;11.714;2023-07-02T01:08:05;27.50;88.10
59572;DHT22;70118;45.638;11.714;2023-07-02T01:10:31;27.50;88.50
59572;DHT22;70118;45.638;11.714;2023-07-02T01:13:05;27.40;88.10
59572;DHT22;70118;45.638;11.714;2023-07-02T01:15:32;27.50;88.10
59572;DHT22;70118;45.638;11.714;2023-07-02T01:17:59;27.40;88.10
59572;DHT22;70118;45.638;11.714;2023-07-02T01:20:26;27.40;88.30
59572;DHT22;70118;45.638;11.714;2023-07-02T01:22:53;27.40;88.40
59572;DHT22;70118;45.638;11.714;2023-07-02T01:25:18;27.50;88.40
59572;DHT22;70118;45.638;11.714;2023-07-02T01:27:50;27.40;88.40
59572;DHT22;70118;45.638;11.714;2023-07-02T01:30:17;27.40;88.50
59572;DHT22;70118;45.638;11.714;2023-07-02T01:32:43;27.40;88.40
59572;DHT22;70118;45.638;11.714;2023-07-02T01:35:09;27.40;88.60
59572;DHT22;70118;45.638;11.714;2023-07-02T01:37:35;27.40;88.60
59572;DHT22;70118;45.638;11.714;2023-07-02T01:40:06;27.50;88.60
59572;DHT22;70118;45.638;11.714;2023-07-02T01:42:32;27.30;88.70
59572;DHT22;70118;45.638;11.714;2023-07-02T01:44:58;27.40;88.50
59572;DHT22;70118;45.638;11.714;2023-07-02T01:47:24;27.30;88.60
59572;DHT22;70118;45.638;11.714;2023-07-02T01:49:50;27.30;88.50
59572;DHT22;70118;45.638;11.714;2023-07-02T01:52:17;27.40;88.70
59572;DHT22;70118;45.638;11.714;2023-07-02T01:54:43;27.40;88.60
59572;DHT22;70118;45.638;11.714;2023-07-02T01:57:09;27.40;88.80
59572;DHT22;70118;45.638;11.714;2023-07-02T01:59:35;27.30;88.70
59572;DHT22;70118;45.638;11.714;2023-07-02T02:02:01;27.30;88.60
59572;DHT22;70118;45.638;11.714;2023-07-02T02:04:28;27.40;88.70
59572;DHT22;70118;45.638;11.714;2023-07-02T02:06:53;27.30;88.70
59572;DHT22;70118;45.638;11.714;2023-07-02T02:09:19;27.30;88.60
59572;DHT22;70118;45.638;11.714;2023-07-02T02:11:49;27.40;88.80
59572;DHT22;70118;45.638;11.714;2023-07-02T02:14:15;27.30;89.00
59572;DHT22;70118;45.638;11.714;2023-07-02T02:16:43;27.30;88.40
59572;DHT22;70118;45.638;11.714;2023-07-02T02:19:11;27.30;87.60
59572;DHT22;70118;45.638;11.714;2023-07-02T02:21:38;27.40;87.10
59572;DHT22;70118;45.638;11.714;2023-07-02T02:24:05;27.40;87.50
59572;DHT22;70118;45.638;11.714;2023-07-02T02:26:31;27.40;87.90
59572;DHT22;70118;45.638;11.714;2023-07-02T02:28:57;27.40;88.10
59572;DHT22;70118;45.638;11.714;2023-07-02T02:31:22;27.40;88.10
59572;DHT22;70118;45.638;11.714;2023-07-02T02:33:48;27.40;88.10
59572;DHT22;70118;45.638;11.714;2023-07-02T02:36:14;27.40;88.20
59572;DHT22;70118;45.638;11.714;2023-07-02T02:38:41;27.50;88.20
59572;DHT22;70118;45.638;11.714;2023-07-02T02:41:07;27.30;88.40
59572;DHT22;70118;45.638;11.714;2023-07-02T02:43:34;27.30;88.40
59572;DHT22;70118;45.638;11.714;2023-07-02T02:46:00;27.40;88.40
59572;DHT22;70118;45.638;11.714;2023-07-02T02:48:26;27.30;88.40
59572;DHT22;70118;45.638;11.714;2023-07-02T02:50:51;27.30;88.60
59572;DHT22;70118;45.638;11.714;2023-07-02T02:53:17;27.30;88.40
59572;DHT22;70118;45.638;11.714;2023-07-02T02:55:43;27.40;88.50
59572;DHT22;70118;45.638;11.714;2023-07-02T02:58:09;27.40;88.50
59572;DHT22;70118;45.638;11.714;2023-07-02T03:00:35;27.30;88.60
59572;DHT22;70118;45.638;11.714;2023-07-02T03:03:01;27.30;88.60
59572;DHT22;70118;45.638;11.714;2023-07-02T03:05:28;27.30;88.60
59572;DHT22;70118;45.638;11.714;2023-07-02T03:07:54;27.20;88.60
59572;DHT22;70118;45.638;11.714;2023-07-02T03:10:20;27.30;88.60
59572;DHT22;70118;45.638;11.714;2023-07-02T03:12:47;27.20;88.50
59572;DHT22;70118;45.638;11.714;2023-07-02T03:15:13;27.30;88.60
59572;DHT22;70118;45.638;11.714;2023-07-02T03:17:39;27.30;88.50
59572;DHT22;70118;45.638;11.714;2023-07-02T03:20:06;27.30;88.50
59572;DHT22;70118;45.638;11.714;2023-07-02T03:22:33;27.20;88.40
59572;DHT22;70118;45.638;11.714;2023-07-02T03:25:00;27.30;88.30
59572;DHT22;70118;45.638;11.714;2023-07-02T03:27:26;27.20;88.30
59572;DHT22;70118;45.638;11.714;2023-07-02T03:29:52;27.30;88.10
59572;DHT22;70118;45.638;11.714;2023-07-02T03:32:18;27.20;88.30
59572;DHT22;70118;45.638;11.714;2023-07-02T03:34:44;27.20;88.10
59572;DHT22;70118;45.638;11.714;2023-07-02T03:37:10;27.10;88.00
59572;DHT22;70118;45.638;11.714;2023-07-02T03:39:36;27.20;87.90
59572;DHT22;70118;45.638;11.714;2023-07-02T03:42:02;27.20;87.90
59572;DHT22;70118;45.638;11.714;2023-07-02T03:44:27;27.10;87.80
59572;DHT22;70118;45.638;11.714;2023-07-02T03:46:54;27.20;87.70
59572;DHT22;70118;45.638;11.714;2023-07-02T03:49:19;27.30;87.70
59572;DHT22;70118;45.638;11.714;2023-07-02T03:51:45;27.20;87.70
59572;DHT22;70118;45.638;11.714;2023-07-02T03:54:11;27.20;87.60
59572;DHT22;70118;45.638;11.714;2023-07-02T03:56:37;27.20;87.40
59572;DHT22;70118;45.638;11.714;2023-07-02T03:59:03;27.20;87.50
59572;DHT22;70118;45.638;11.714;2023-07-02T04:01:29;27.20;87.30
59572;DHT22;70118;45.638;11.714;2023-07-02T04:03:56;27.10;87.30
59572;DHT22;70118;45.638;11.714;2023-07-02T04:06:22;27.20;87.30
59572;DHT22;70118;45.638;11.714;2023-07-02T04:08:48;27.20;87.20
59572;DHT22;70118;45.638;11.714;2023-07-02T04:11:14;27.20;87.20
59572;DHT22;70118;45.638;11.714;2023-07-02T04:13:40;27.20;87.00
59572;DHT22;70118;45.638;11.714;2023-07-02T04:16:07;27.20;87.00
59572;DHT22;70118;45.638;11.714;2023-07-02T04:18:33;27.10;86.90
59572;DHT22;70118;45.638;11.714;2023-07-02T04:21:00;27.20;86.90
59572;DHT22;70118;45.638;11.714;2023-07-02T04:23:26;27.10;86.90
59572;DHT22;70118;45.638;11.714;2023-07-02T04:25:52;27.20;87.00
59572;DHT22;70118;45.638;11.714;2023-07-02T04:28:17;27.10;86.90
59572;DHT22;70118;45.638;11.714;2023-07-02T04:30:44;27.10;87.20
59572;DHT22;70118;45.638;11.714;2023-07-02T04:33:10;27.20;87.00
59572;DHT22;70118;45.638;11.714;2023-07-02T04:35:39;27.10;87.00
59572;DHT22;70118;45.638;11.714;2023-07-02T04:38:05;27.10;87.20
59572;DHT22;70118;45.638;11.714;2023-07-02T04:40:32;27.20;87.30
59572;DHT22;70118;45.638;11.714;2023-07-02T04:42:58;27.20;87.40
59572;DHT22;70118;45.638;11.714;2023-07-02T04:45:25;27.10;87.40
59572;DHT22;70118;45.638;11.714;2023-07-02T04:47:52;27.10;87.70
59572;DHT22;70118;45.638;11.714;2023-07-02T04:50:20;27.20;87.70
59572;DHT22;70118;45.638;11.714;2023-07-02T04:52:47;27.10;87.70
59572;DHT22;70118;45.638;11.714;2023-07-02T04:55:13;27.20;87.70
59572;DHT22;70118;45.638;11.714;2023-07-02T04:57:39;27.20;87.90
59572;DHT22;70118;45.638;11.714;2023-07-02T05:00:06;27.10;88.10
59572;DHT22;70118;45.638;11.714;2023-07-02T05:02:34;27.10;88.10
59572;DHT22;70118;45.638;11.714;2023-07-02T05:05:00;27.10;88.20
59572;DHT22;70118;45.638;11.714;2023-07-02T05:07:29;27.20;88.50
59572;DHT22;70118;45.638;11.714;2023-07-02T05:09:59;27.10;88.80
59572;DHT22;70118;45.638;11.714;2023-07-02T05:12:30;27.10;88.80
59572;DHT22;70118;45.638;11.714;2023-07-02T05:14:57;27.20;88.90
59572;DHT22;70118;45.638;11.714;2023-07-02T05:17:23;27.10;88.90
59572;DHT22;70118;45.638;11.714;2023-07-02T05:19:51;27.20;88.70
59572;DHT22;70118;45.638;11.714;2023-07-02T05:22:20;27.10;89.00
59572;DHT22;70118;45.638;11.714;2023-07-02T05:24:49;27.20;88.80
59572;DHT22;70118;45.638;11.714;2023-07-02T05:27:16;27.10;88.60
59572;DHT22;70118;45.638;11.714;2023-07-02T05:29:42;27.20;88.40
59572;DHT22;70118;45.638;11.714;2023-07-02T05:32:08;27.10;88.20
59572;DHT22;70118;45.638;11.714;2023-07-02T05:34:34;27.10;87.80
59572;DHT22;70118;45.638;11.714;2023-07-02T05:37:03;27.20;87.80
59572;DHT22;70118;45.638;11.714;2023-07-02T05:39:30;27.20;87.60
59572;DHT22;70118;45.638;11.714;2023-07-02T05:41:59;27.20;87.80
59572;DHT22;70118;45.638;11.714;2023-07-02T05:44:25;27.20;88.40
59572;DHT22;70118;45.638;11.714;2023-07-02T05:46:54;27.20;88.20
59572;DHT22;70118;45.638;11.714;2023-07-02T05:49:24;27.20;88.20
59572;DHT22;70118;45.638;11.714;2023-07-02T05:51:52;27.20;88.10
59572;DHT22;70118;45.638;11.714;2023-07-02T05:54:19;27.30;88.30
59572;DHT22;70118;45.638;11.714;2023-07-02T05:56:45;27.30;88.50
59572;DHT22;70118;45.638;11.714;2023-07-02T05:59:11;27.20;88.60
59572;DHT22;70118;45.638;11.714;2023-07-02T06:01:41;27.20;88.50
59572;DHT22;70118;45.638;11.714;2023-07-02T06:04:08;27.20;88.70
59572;DHT22;70118;45.638;11.714;2023-07-02T06:06:34;27.20;88.70
59572;DHT22;70118;45.638;11.714;2023-07-02T06:08:59;27.20;88.70
59572;DHT22;70118;45.638;11.714;2023-07-02T06:11:25;27.30;88.70
59572;DHT22;70118;45.638;11.714;2023-07-02T06:13:51;27.30;88.80
59572;DHT22;70118;45.638;11.714;2023-07-02T06:16:17;27.30;89.10
59572;DHT22;70118;45.638;11.714;2023-07-02T06:18:43;27.20;89.30
59572;DHT22;70118;45.638;11.714;2023-07-02T06:21:08;27.20;89.50
59572;DHT22;70118;45.638;11.714;2023-07-02T06:23:44;27.20;89.60
59572;DHT22;70118;45.638;11.714;2023-07-02T06:26:10;27.20;90.60
59572;DHT22;70118;45.638;11.714;2023-07-02T06:28:36;27.20;89.80
59572;DHT22;70118;45.638;11.714;2023-07-02T06:31:02;27.20;89.90
59572;DHT22;70118;45.638;11.714;2023-07-02T06:33:28;27.20;89.80
59572;DHT22;70118;45.638;11.714;2023-07-02T06:35:54;27.30;90.00
59572;DHT22;70118;45.638;11.714;2023-07-02T06:38:20;27.20;90.00
59572;DHT22;70118;45.638;11.714;2023-07-02T06:40:45;27.30;90.00
59572;DHT22;70118;45.638;11.714;2023-07-02T06:43:11;27.30;90.10
59572;DHT22;70118;45.638;11.714;2023-07-02T06:45:37;27.40;90.00
59572;DHT22;70118;45.638;11.714;2023-07-02T06:48:03;27.30;90.30
59572;DHT22;70118;45.638;11.714;2023-07-02T06:50:29;27.40;90.20
59572;DHT22;70118;45.638;11.714;2023-07-02T06:52:54;27.40;90.20
59572;DHT22;70118;45.638;11.714;2023-07-02T06:55:20;27.30;90.30
59572;DHT22;70118;45.638;11.714;2023-07-02T06:57:46;27.40;90.10
59572;DHT22;70118;45.638;11.714;2023-07-02T07:00:13;27.30;90.20
59572;DHT22;70118;45.638;11.714;2023-07-02T07:02:39;27.20;90.30
59572;DHT22;70118;45.638;11.714;2023-07-02T07:05:05;27.30;90.30
59572;DHT22;70118;45.638;11.714;2023-07-02T07:07:32;27.30;90.50
59572;DHT22;70118;45.638;11.714;2023-07-02T07:09:57;27.30;90.30
59572;DHT22;70118;45.638;11.714;2023-07-02T07:12:23;27.30;90.40
59572;DHT22;70118;45.638;11.714;2023-07-02T07:14:49;27.30;90.30
59572;DHT22;70118;45.638;11.714;2023-07-02T07:17:15;27.40;90.20
59572;DHT22;70118;45.638;11.714;2023-07-02T07:19:41;27.30;90.30
59572;DHT22;70118;45.638;11.714;2023-07-02T07:22:07;27.30;90.10
59572;DHT22;70118;45.638;11.714;2023-07-02T07:24:32;27.30;90.30
59572;DHT22;70118;45.638;11.714;2023-07-02T07:26:58;27.30;90.30
59572;DHT22;70118;45.638;11.714;2023-07-02T07:29:24;27.30;90.20
59572;DHT22;70118;45.638;11.714;2023-07-02T07:31:50;27.30;90.20
59572;DHT22;70118;45.638;11.714;2023-07-02T07:34:16;27.40;90.20
59572;DHT22;70118;45.638;11.714;2023-07-02T07:36:42;27.40;90.20
59572;DHT22;70118;45.638;11.714;2023-07-02T07:39:07;27.40;90.20
59572;DHT22;70118;45.638;11.714;2023-07-02T07:41:33;27.30;90.30
59572;DHT22;70118;45.638;11.714;2023-07-02T07:43:59;27.40;90.20
59572;DHT22;70118;45.638;11.714;2023-07-02T07:46:27;27.40;90.00
59572;DHT22;70118;45.638;11.714;2023-07-02T07:48:53;27.50;90.00
59572;DHT22;70118;45.638;11.714;2023-07-02T07:51:18;27.40;89.70
59572;DHT22;70118;45.638;11.714;2023-07-02T07:53:44;27.40;89.80
59572;DHT22;70118;45.638;11.714;2023-07-02T07:56:10;27.40;89.90
59572;DHT22;70118;45.638;11.714;2023-07-02T07:58:36;27.50;89.80
59572;DHT22;70118;45.638;11.714;2023-07-02T08:01:02;27.40;89.70
59572;DHT22;70118;45.638;11.714;2023-07-02T08:03:27;27.50;89.80
59572;DHT22;70118;45.638;11.714;2023-07-02T08:05:53;27.40;89.60
59572;DHT22;70118;45.638;11.714;2023-07-02T08:08:19;27.30;89.80
59572;DHT22;70118;45.638;11.714;2023-07-02T08:10:45;27.40;89.90
59572;DHT22;70118;45.638;11.714;2023-07-02T08:13:12;27.50;89.80
59572;DHT22;70118;45.638;11.714;2023-07-02T08:15:38;27.50;89.70
59572;DHT22;70118;45.638;11.714;2023-07-02T08:18:04;27.40;89.70
59572;DHT22;70118;45.638;11.714;2023-07-02T08:20:32;27.40;89.80
59572;DHT22;70118;45.638;11.714;2023-07-02T08:22:58;27.50;89.50
59572;DHT22;70118;45.638;11.714;2023-07-02T08:25:24;27.40;89.30
59572;DHT22;70118;45.638;11.714;2023-07-02T08:27:52;27.40;89.40
59572;DHT22;70118;45.638;11.714;2023-07-02T08:30:18;27.40;89.50
59572;DHT22;70118;45.638;11.714;2023-07-02T08:32:45;27.50;89.50
59572;DHT22;70118;45.638;11.714;2023-07-02T08:35:11;27.40;89.50
59572;DHT22;70118;45.638;11.714;2023-07-02T08:37:37;27.40;89.50
59572;DHT22;70118;45.638;11.714;2023-07-02T08:40:03;27.40;89.50
59572;DHT22;70118;45.638;11.714;2023-07-02T08:42:32;27.40;89.50
59572;DHT22;70118;45.638;11.714;2023-07-02T08:44:59;27.40;89.60
59572;DHT22;70118;45.638;11.714;2023-07-02T08:47:26;27.40;89.60
59572;DHT22;70118;45.638;11.714;2023-07-02T08:49:52;27.50;89.80
59572;DHT22;70118;45.638;11.714;2023-07-02T08:52:18;27.40;89.50
59572;DHT22;70118;45.638;11.714;2023-07-02T08:54:44;27.50;89.70
59572;DHT22;70118;45.638;11.714;2023-07-02T08:57:10;27.50;89.70
59572;DHT22;70118;45.638;11.714;2023-07-02T08:59:39;27.50;89.70
59572;DHT22;70118;45.638;11.714;2023-07-02T09:02:05;27.50;90.00
59572;DHT22;70118;45.638;11.714;2023-07-02T09:04:30;27.50;90.00
59572;DHT22;70118;45.638;11.714;2023-07-02T09:07:10;27.50;90.20
59572;DHT22;70118;45.638;11.714;2023-07-02T09:09:49;27.50;91.90
59572;DHT22;70118;45.638;11.714;2023-07-02T09:12:25;27.50;91.90
59572;DHT22;70118;45.638;11.714;2023-07-02T09:14:58;27.50;91.90
59572;DHT22;70118;45.638;11.714;2023-07-02T09:17:32;27.60;94.00
59572;DHT22;70118;45.638;11.714;2023-07-02T09:20:00;27.60;94.40
59572;DHT22;70118;45.638;11.714;2023-07-02T09:22:26;27.60;93.00
59572;DHT22;70118;45.638;11.714;2023-07-02T09:24:54;27.60;93.30
59572;DHT22;70118;45.638;11.714;2023-07-02T09:27:20;27.70;92.60
59572;DHT22;70118;45.638;11.714;2023-07-02T09:29:50;27.60;93.00
59572;DHT22;70118;45.638;11.714;2023-07-02T09:32:27;27.70;94.40
59572;DHT22;70118;45.638;11.714;2023-07-02T09:34:55;27.70;97.00
59572;DHT22;70118;45.638;11.714;2023-07-02T09:37:23;27.70;95.00
59572;DHT22;70118;45.638;11.714;2023-07-02T09:39:53;27.60;92.80
59572;DHT22;70118;45.638;11.714;2023-07-02T09:42:20;27.80;94.80
59572;DHT22;70118;45.638;11.714;2023-07-02T09:44:47;27.70;94.20
59572;DHT22;70118;45.638;11.714;2023-07-02T09:47:18;27.70;94.40
59572;DHT22;70118;45.638;11.714;2023-07-02T09:50:04;27.70;95.70
59572;DHT22;70118;45.638;11.714;2023-07-02T09:52:34;27.70;98.30
59572;DHT22;70118;45.638;11.714;2023-07-02T09:55:01;27.80;95.20
59572;DHT22;70118;45.638;11.714;2023-07-02T09:57:27;27.80;94.90
59572;DHT22;70118;45.638;11.714;2023-07-02T09:59:58;27.80;94.80
59572;DHT22;70118;45.638;11.714;2023-07-02T10:02:24;27.80;94.90
59572;DHT22;70118;45.638;11.714;2023-07-02T10:04:50;27.80;94.70
59572;DHT22;70118;45.638;11.714;2023-07-02T10:07:28;27.80;94.60
59572;DHT22;70118;45.638;11.714;2023-07-02T10:09:54;27.80;96.30
59572;DHT22;70118;45.638;11.714;2023-07-02T10:12:25;27.80;94.60
59572;DHT22;70118;45.638;11.714;2023-07-02T10:14:55;27.80;94.70
59572;DHT22;70118;45.638;11.714;2023-07-02T10:19:55;27.80;94.00
59572;DHT22;70118;45.638;11.714;2023-07-02T10:22:22;27.80;93.80
59572;DHT22;70118;45.638;11.714;2023-07-02T10:24:53;27.80;94.30
59572;DHT22;70118;45.638;11.714;2023-07-02T10:27:19;27.90;94.60
59572;DHT22;70118;45.638;11.714;2023-07-02T10:29:51;27.90;92.90
59572;DHT22;70118;45.638;11.714;2023-07-02T10:32:26;27.90;91.40
59572;DHT22;70118;45.638;11.714;2023-07-02T10:34:53;27.90;93.00
59572;DHT22;70118;45.638;11.714;2023-07-02T10:37:19;27.90;92.70
59572;DHT22;70118;45.638;11.714;2023-07-02T10:39:45;27.90;91.70
59572;DHT22;70118;45.638;11.714;2023-07-02T10:42:11;27.80;91.20
59572;DHT22;70118;45.638;11.714;2023-07-02T10:44:49;27.90;90.90
59572;DHT22;70118;45.638;11.714;2023-07-02T10:47:15;27.90;89.80
59572;DHT22;70118;45.638;11.714;2023-07-02T10:49:41;27.90;90.10
59572;DHT22;70118;45.638;11.714;2023-07-02T10:52:07;27.80;90.20
59572;DHT22;70118;45.638;11.714;2023-07-02T10:54:43;27.90;90.10
59572;DHT22;70118;45.638;11.714;2023-07-02T10:57:18;27.80;89.70
59572;DHT22;70118;45.638;11.714;2023-07-02T10:59:47;27.90;89.20
59572;DHT22;70118;45.638;11.714;2023-07-02T11:02:14;27.80;89.40
59572;DHT22;70118;45.638;11.714;2023-07-02T11:04:40;27.90;89.10
59572;DHT22;70118;45.638;11.714;2023-07-02T11:07:07;27.80;88.90
59572;DHT22;70118;45.638;11.714;2023-07-02T11:09:33;27.90;88.70
59572;DHT22;70118;45.638;11.714;2023-07-02T11:12:00;27.90;88.50
59572;DHT22;70118;45.638;11.714;2023-07-02T11:14:36;27.90;88.20
59572;DHT22;70118;45.638;11.714;2023-07-02T11:17:04;27.90;89.50
59572;DHT22;70118;45.638;11.714;2023-07-02T11:19:31;27.90;89.30
59572;DHT22;70118;45.638;11.714;2023-07-02T11:21:58;27.90;89.40
59572;DHT22;70118;45.638;11.714;2023-07-02T11:24:34;27.90;89.70
59572;DHT22;70118;45.638;11.714;2023-07-02T11:27:02;28.00;89.70
59572;DHT22;70118;45.638;11.714;2023-07-02T11:29:32;28.00;89.70
59572;DHT22;70118;45.638;11.714;2023-07-02T11:32:08;27.90;88.40
59572;DHT22;70118;45.638;11.714;2023-07-02T11:34:38;28.00;88.10
59572;DHT22;70118;45.638;11.714;2023-07-02T11:37:05;28.00;88.30
59572;DHT22;70118;45.638;11.714;2023-07-02T11:39:31;28.10;87.80
59572;DHT22;70118;45.638;11.714;2023-07-02T11:41:59;28.00;87.80
59572;DHT22;70118;45.638;11.714;2023-07-02T11:44:25;27.90;87.70
59572;DHT22;70118;45.638;11.714;2023-07-02T11:46:52;28.00;88.20
59572;DHT22;70118;45.638;11.714;2023-07-02T11:49:18;28.00;87.90
59572;DHT22;70118;45.638;11.714;2023-07-02T11:51:46;28.00;87.80
59572;DHT22;70118;45.638;11.714;2023-07-02T11:54:18;28.00;87.80
59572;DHT22;70118;45.638;11.714;2023-07-02T11:56:45;28.00;87.70
59572;DHT22;70118;45.638;11.714;2023-07-02T11:59:11;28.00;87.70
59572;DHT22;70118;45.638;11.714;2023-07-02T12:01:38;28.00;87.60
59572;DHT22;70118;45.638;11.714;2023-07-02T12:04:09;28.10;87.60
59572;DHT22;70118;45.638;11.714;2023-07-02T12:06:41;28.10;88.00
59572;DHT22;70118;45.638;11.714;2023-07-02T12:09:09;28.10;88.00
59572;DHT22;70118;45.638;11.714;2023-07-02T12:11:35;28.00;87.60
59572;DHT22;70118;45.638;11.714;2023-07-02T12:14:01;28.10;87.30
59572;DHT22;70118;45.638;11.714;2023-07-02T12:16:27;28.10;87.50
59572;DHT22;70118;45.638;11.714;2023-07-02T12:18:53;28.10;87.60
59572;DHT22;70118;45.638;11.714;2023-07-02T12:21:18;28.10;87.10
59572;DHT22;70118;45.638;11.714;2023-07-02T12:23:45;28.10;87.70
59572;DHT22;70118;45.638;11.714;2023-07-02T12:26:11;28.20;88.40
59572;DHT22;70118;45.638;11.714;2023-07-02T12:28:36;28.20;88.60
59572;DHT22;70118;45.638;11.714;2023-07-02T12:31:03;28.10;88.90
59572;DHT22;70118;45.638;11.714;2023-07-02T12:33:28;28.10;89.00
59572;DHT22;70118;45.638;11.714;2023-07-02T12:35:54;28.10;89.10
59572;DHT22;70118;45.638;11.714;2023-07-02T12:38:20;28.10;88.70
59572;DHT22;70118;45.638;11.714;2023-07-02T12:40:46;28.20;88.30
59572;DHT22;70118;45.638;11.714;2023-07-02T12:43:14;28.20;88.60
59572;DHT22;70118;45.638;11.714;2023-07-02T12:45:40;28.10;88.60
59572;DHT22;70118;45.638;11.714;2023-07-02T12:48:06;28.30;87.80
59572;DHT22;70118;45.638;11.714;2023-07-02T12:50:32;28.10;87.80
59572;DHT22;70118;45.638;11.714;2023-07-02T12:52:58;28.20;88.00
59572;DHT22;70118;45.638;11.714;2023-07-02T12:55:27;28.20;88.20
59572;DHT22;70118;45.638;11.714;2023-07-02T12:57:59;28.20;88.10
59572;DHT22;70118;45.638;11.714;2023-07-02T13:00:25;28.10;87.90
59572;DHT22;70118;45.638;11.714;2023-07-02T13:02:51;28.20;88.10
59572;DHT22;70118;45.638;11.714;2023-07-02T13:05:17;28.10;88.40
59572;DHT22;70118;45.638;11.714;2023-07-02T13:07:44;28.20;88.40
59572;DHT22;70118;45.638;11.714;2023-07-02T13:10:10;28.20;87.70
59572;DHT22;70118;45.638;11.714;2023-07-02T13:12:36;28.10;87.50
59572;DHT22;70118;45.638;11.714;2023-07-02T13:15:02;28.10;87.10
59572;DHT22;70118;45.638;11.714;2023-07-02T13:17:29;28.10;86.80
59572;DHT22;70118;45.638;11.714;2023-07-02T13:19:54;28.20;86.70
59572;DHT22;70118;45.638;11.714;2023-07-02T13:22:22;28.10;86.60
59572;DHT22;70118;45.638;11.714;2023-07-02T13:24:48;28.20;86.50
59572;DHT22;70118;45.638;11.714;2023-07-02T13:27:16;28.20;86.20
59572;DHT22;70118;45.638;11.714;2023-07-02T13:29:42;28.10;86.10
59572;DHT22;70118;45.638;11.714;2023-07-02T13:32:08;28.10;86.10
59572;DHT22;70118;45.638;11.714;2023-07-02T13:34:34;28.20;86.00
59572;DHT22;70118;45.638;11.714;2023-07-02T13:37:00;28.20;85.80
59572;DHT22;70118;45.638;11.714;2023-07-02T13:39:29;28.20;85.90
59572;DHT22;70118;45.638;11.714;2023-07-02T13:41:55;28.20;85.80
59572;DHT22;70118;45.638;11.714;2023-07-02T13:44:21;28.20;85.70
59572;DHT22;70118;45.638;11.714;2023-07-02T13:46:47;28.20;85.60
59572;DHT22;70118;45.638;11.714;2023-07-02T13:49:13;28.20;85.70
59572;DHT22;70118;45.638;11.714;2023-07-02T13:51:39;28.20;85.50
59572;DHT22;70118;45.638;11.714;2023-07-02T13:54:05;28.10;85.60
59572;DHT22;70118;45.638;11.714;2023-07-02T13:56:31;28.10;85.50
59572;DHT22;70118;45.638;11.714;2023-07-02T14:01:23;28.20;85.40
59572;DHT22;70118;45.638;11.714;2023-07-02T14:03:50;28.10;85.40
59572;DHT22;70118;45.638;11.714;2023-07-02T14:06:16;28.20;85.40
59572;DHT22;70118;45.638;11.714;2023-07-02T14:08:42;28.20;85.50
59572;DHT22;70118;45.638;11.714;2023-07-02T14:11:08;28.20;85.40
59572;DHT22;70118;45.638;11.714;2023-07-02T14:13:34;28.20;85.40
59572;DHT22;70118;45.638;11.714;2023-07-02T14:16:00;28.20;85.30
59572;DHT22;70118;45.638;11.714;2023-07-02T14:18:25;28.30;85.30
59572;DHT22;70118;45.638;11.714;2023-07-02T14:20:52;28.20;85.20
59572;DHT22;70118;45.638;11.714;2023-07-02T14:23:17;28.20;85.20
59572;DHT22;70118;45.638;11.714;2023-07-02T14:25:43;28.20;85.20
59572;DHT22;70118;45.638;11.714;2023-07-02T14:28:09;28.20;85.20
59572;DHT22;70118;45.638;11.714;2023-07-02T14:30:36;28.20;85.20
59572;DHT22;70118;45.638;11.714;2023-07-02T14:33:02;28.20;85.10
59572;DHT22;70118;45.638;11.714;2023-07-02T14:35:29;28.20;85.00
59572;DHT22;70118;45.638;11.714;2023-07-02T14:37:57;28.20;85.10
59572;DHT22;70118;45.638;11.714;2023-07-02T14:40:23;28.20;85.20
59572;DHT22;70118;45.638;11.714;2023-07-02T14:42:49;28.20;85.10
59572;DHT22;70118;45.638;11.714;2023-07-02T14:45:15;28.20;85.10
59572;DHT22;70118;45.638;11.714;2023-07-02T14:47:42;28.20;85.20
59572;DHT22;70118;45.638;11.714;2023-07-02T14:50:08;28.20;85.10
59572;DHT22;70118;45.638;11.714;2023-07-02T14:52:34;28.20;85.20
59572;DHT22;70118;45.638;11.714;2023-07-02T14:55:00;28.20;85.10
59572;DHT22;70118;45.638;11.714;2023-07-02T14:57:27;28.20;85.20
59572;DHT22;70118;45.638;11.714;2023-07-02T14:59:53;28.20;85.10
59572;DHT22;70118;45.638;11.714;2023-07-02T15:02:19;28.20;85.20
59572;DHT22;70118;45.638;11.714;2023-07-02T15:04:45;28.20;85.20
59572;DHT22;70118;45.638;11.714;2023-07-02T15:07:11;28.20;85.30
59572;DHT22;70118;45.638;11.714;2023-07-02T15:09:37;28.30;85.10
59572;DHT22;70118;45.638;11.714;2023-07-02T15:12:03;28.20;85.50
59572;DHT22;70118;45.638;11.714;2023-07-02T15:14:29;28.20;85.40
59572;DHT22;70118;45.638;11.714;2023-07-02T15:16:54;28.20;85.20
59572;DHT22;70118;45.638;11.714;2023-07-02T15:19:21;28.30;85.20